Wetterstation Vordersexau
Wetterdaten: Woche 03.09.12 - 09.09.12 (KW36)
Datum Zeit Temp. A. Feuchte A. Luftdruck Regen Wind Richtung Taupunkt Windchill Windben
03.09.2012 00:00 15,4 C 81 % 1021,8 hPa 0,0 l/m 0,0 km/h SO 12,2 C 15,4 C 0,0 km/h
03.09.2012 01:00 15,5 C 82 % 1021,7 hPa 0,0 l/m 0,0 km/h SO 12,4 C 15,5 C 0,0 km/h
03.09.2012 02:00 15,3 C 82 % 1021,5 hPa 0,0 l/m 0,0 km/h N-NW 12,2 C 15,3 C 0,0 km/h
03.09.2012 03:00 15,2 C 82 % 1021,0 hPa 0,0 l/m 0,0 km/h O-SO 12,1 C 15,2 C 0,0 km/h
03.09.2012 04:00 14,6 C 81 % 1020,9 hPa 0,0 l/m 0,0 km/h W-SW 11,4 C 14,6 C 0,0 km/h
03.09.2012 05:00 14,4 C 80 % 1020,6 hPa 0,0 l/m 0,0 km/h W-SW 11,0 C 14,4 C 0,0 km/h
03.09.2012 06:00 13,9 C 80 % 1020,1 hPa 0,0 l/m 0,0 km/h N-NW 10,5 C 13,9 C 0,0 km/h
03.09.2012 07:00 14,3 C 76 % 1020,5 hPa 0,0 l/m 0,0 km/h N-NW 10,1 C 14,3 C 0,0 km/h
03.09.2012 08:00 15,0 C 75 % 1020,5 hPa 0,0 l/m 0,0 km/h SW 10,6 C 15,0 C 0,0 km/h
03.09.2012 09:00 19,6 C 81 % 1020,1 hPa 0,0 l/m 0,0 km/h W 16,2 C 19,6 C 0,0 km/h
03.09.2012 10:00 23,9 C 67 % 1019,8 hPa 0,0 l/m 0,0 km/h N-NO 17,4 C 23,9 C 0,0 km/h
03.09.2012 11:00 26,2 C 53 % 1019,7 hPa 0,0 l/m 0,0 km/h NO 15,8 C 26,2 C 0,0 km/h
03.09.2012 12:00 24,3 C 61 % 1019,2 hPa 0,0 l/m 0,0 km/h N-NO 16,3 C 24,3 C 0,0 km/h
03.09.2012 13:00 23,2 C 60 % 1019,0 hPa 0,0 l/m 0,0 km/h NO 15,0 C 23,2 C 0,0 km/h
03.09.2012 14:00 23,6 C 58 % 1018,4 hPa 0,0 l/m 0,0 km/h N-NO 14,8 C 23,6 C 0,0 km/h
03.09.2012 15:00 23,6 C 60 % 1018,0 hPa 0,0 l/m 0,0 km/h N-NO 15,4 C 23,6 C 0,0 km/h
03.09.2012 16:00 22,5 C 66 % 1018,0 hPa 0,0 l/m 0,0 km/h N-NO 15,8 C 22,5 C 0,0 km/h
03.09.2012 17:00 22,1 C 69 % 1017,9 hPa 0,0 l/m 0,0 km/h N-NO 16,1 C 22,1 C 0,0 km/h
03.09.2012 18:00 21,1 C 72 % 1017,9 hPa 0,0 l/m 0,0 km/h N-NO 15,8 C 21,1 C 0,0 km/h
03.09.2012 19:00 20,2 C 74 % 1017,7 hPa 0,0 l/m 0,0 km/h O-NO 15,4 C 20,2 C 0,0 km/h
03.09.2012 20:00 18,9 C 78 % 1018,1 hPa 0,0 l/m 0,0 km/h N-NO 15,0 C 18,9 C 0,0 km/h
03.09.2012 21:00 17,9 C 80 % 1018,6 hPa 0,0 l/m 0,0 km/h O-SO 14,4 C 17,9 C 0,0 km/h
03.09.2012 22:00 17,5 C 82 % 1018,5 hPa 0,0 l/m 0,0 km/h SO 14,4 C 17,5 C 0,0 km/h
03.09.2012 23:00 17,4 C 82 % 1018,4 hPa 0,0 l/m 0,0 km/h O-SO 14,3 C 17,4 C 0,0 km/h
04.09.2012 00:00 17,2 C 82 % 1018,3 hPa 0,0 l/m 0,0 km/h N-NO 14,1 C 17,2 C 0,0 km/h
04.09.2012 01:00 16,8 C 82 % 1017,7 hPa 0,0 l/m 0,0 km/h O-SO 13,7 C 16,8 C 0,0 km/h
04.09.2012 02:00 15,2 C 83 % 1017,8 hPa 0,0 l/m 0,0 km/h SO 12,3 C 15,2 C 0,0 km/h
04.09.2012 03:00 14,8 C 81 % 1017,6 hPa 0,0 l/m 0,0 km/h SO 11,6 C 14,8 C 0,0 km/h
04.09.2012 04:00 14,8 C 81 % 1017,4 hPa 0,0 l/m 0,0 km/h SO 11,6 C 14,8 C 0,0 km/h
04.09.2012 05:00 15,4 C 80 % 1017,3 hPa 0,0 l/m 0,0 km/h SO 12,0 C 15,4 C 0,0 km/h
04.09.2012 06:00 15,2 C 80 % 1017,0 hPa 0,0 l/m 0,0 km/h W-SW 11,8 C 15,2 C 0,0 km/h
04.09.2012 07:00 14,5 C 81 % 1017,3 hPa 0,0 l/m 0,0 km/h W-SW 11,3 C 14,5 C 0,0 km/h
04.09.2012 08:00 15,1 C 83 % 1017,5 hPa 0,0 l/m 0,0 km/h W 12,2 C 15,1 C 0,0 km/h
04.09.2012 09:00 16,1 C 83 % 1017,7 hPa 0,0 l/m 0,0 km/h W-SW 13,2 C 16,1 C 0,0 km/h
04.09.2012 10:00 17,2 C 82 % 1017,9 hPa 0,0 l/m 0,0 km/h S-SW 14,1 C 17,2 C 0,0 km/h
04.09.2012 11:00 21,1 C 76 % 1017,6 hPa 0,0 l/m 0,0 km/h N-NO 16,7 C 21,1 C 0,0 km/h
04.09.2012 12:00 25,9 C 61 % 1017,1 hPa 0,0 l/m 0,0 km/h N-NO 17,8 C 25,9 C 0,0 km/h
04.09.2012 13:00 26,0 C 55 % 1016,7 hPa 0,0 l/m 0,0 km/h N 16,2 C 26,0 C 0,0 km/h
04.09.2012 14:00 27,9 C 51 % 1016,3 hPa 0,0 l/m 0,0 km/h N-NO 16,8 C 27,9 C 0,0 km/h
04.09.2012 15:00 29,8 C 45 % 1016,0 hPa 0,0 l/m 0,0 km/h N-NO 16,6 C 29,8 C 0,0 km/h
04.09.2012 16:00 27,3 C 46 % 1015,9 hPa 0,0 l/m 0,0 km/h N-NO 14,6 C 27,3 C 0,0 km/h
04.09.2012 17:00 27,8 C 50 % 1015,4 hPa 0,0 l/m 0,0 km/h N-NO 16,4 C 27,8 C 0,0 km/h
04.09.2012 18:00 28,8 C 47 % 1015,2 hPa 0,0 l/m 0,0 km/h NO 16,3 C 28,8 C 0,0 km/h
04.09.2012 19:00 23,2 C 58 % 1015,5 hPa 0,0 l/m 0,0 km/h N-NO 14,5 C 23,2 C 0,0 km/h
04.09.2012 20:00 18,8 C 73 % 1016,1 hPa 0,0 l/m 0,0 km/h NO 13,9 C 18,8 C 0,0 km/h
04.09.2012 21:00 16,3 C 80 % 1016,6 hPa 0,0 l/m 0,0 km/h NO 12,8 C 16,3 C 0,0 km/h
04.09.2012 22:00 17,2 C 81 % 1016,7 hPa 0,0 l/m 0,0 km/h O-SO 13,9 C 17,2 C 0,0 km/h
04.09.2012 23:00 16,9 C 82 % 1016,6 hPa 0,0 l/m 0,0 km/h O-NO 13,8 C 16,9 C 0,0 km/h
05.09.2012 00:00 15,9 C 82 % 1016,7 hPa 0,0 l/m 0,0 km/h O-NO 12,8 C 15,9 C 0,0 km/h
05.09.2012 01:00 15,8 C 82 % 1016,6 hPa 0,0 l/m 0,0 km/h O-SO 12,7 C 15,8 C 0,0 km/h
05.09.2012 02:00 14,6 C 83 % 1016,3 hPa 0,0 l/m 0,0 km/h O 11,7 C 14,6 C 0,0 km/h
05.09.2012 03:00 13,4 C 83 % 1015,9 hPa 0,0 l/m 0,0 km/h O-SO 10,6 C 13,4 C 0,0 km/h
05.09.2012 04:00 12,1 C 82 % 1015,9 hPa 0,0 l/m 0,0 km/h W-NW 9,1 C 12,1 C 0,0 km/h
05.09.2012 05:00 12,7 C 79 % 1015,9 hPa 0,0 l/m 0,0 km/h W 9,2 C 12,7 C 0,0 km/h
05.09.2012 06:00 12,3 C 79 % 1015,9 hPa 0,0 l/m 0,0 km/h W-SW 8,8 C 12,3 C 0,0 km/h
05.09.2012 07:00 12,0 C 77 % 1016,3 hPa 0,0 l/m 0,0 km/h W-NW 8,1 C 12,0 C 0,0 km/h
05.09.2012 08:00 13,7 C 70 % 1016,8 hPa 0,0 l/m 0,0 km/h N-NW 8,3 C 13,7 C 0,0 km/h
05.09.2012 09:00 17,9 C 81 % 1016,9 hPa 0,0 l/m 0,0 km/h N 14,6 C 17,9 C 0,0 km/h
05.09.2012 10:00 21,9 C 69 % 1017,1 hPa 0,0 l/m 0,0 km/h W-SW 15,9 C 21,9 C 0,0 km/h
05.09.2012 11:00 25,3 C 62 % 1017,1 hPa 0,0 l/m 0,0 km/h W-NW 17,5 C 25,3 C 0,0 km/h
05.09.2012 12:00 27,1 C 58 % 1016,6 hPa 0,0 l/m 0,0 km/h NW 18,1 C 27,1 C 0,0 km/h
05.09.2012 13:00 28,8 C 53 % 1016,4 hPa 0,0 l/m 0,0 km/h N 18,2 C 28,8 C 0,0 km/h
05.09.2012 14:00 27,9 C 51 % 1016,1 hPa 0,0 l/m 0,0 km/h N-NO 16,8 C 27,9 C 0,0 km/h
05.09.2012 15:00 27,6 C 51 % 1015,8 hPa 0,0 l/m 0,0 km/h N 16,5 C 27,6 C 0,0 km/h
05.09.2012 16:00 28,1 C 49 % 1016,1 hPa 0,0 l/m 0,0 km/h N-NO 16,4 C 28,1 C 0,0 km/h
05.09.2012 17:00 25,9 C 53 % 1016,1 hPa 0,0 l/m 0,0 km/h O-NO 15,6 C 25,9 C 0,0 km/h
05.09.2012 18:00 24,5 C 56 % 1015,9 hPa 0,0 l/m 0,0 km/h N-NO 15,1 C 24,5 C 0,0 km/h
05.09.2012 19:00 22,6 C 60 % 1016,3 hPa 0,0 l/m 0,0 km/h N-NW 14,4 C 22,6 C 0,0 km/h
05.09.2012 20:00 20,0 C 69 % 1017,4 hPa 0,0 l/m 0,0 km/h N-NO 14,1 C 20,0 C 0,0 km/h
05.09.2012 21:00 18,4 C 74 % 1018,4 hPa 0,0 l/m 0,0 km/h NO 13,7 C 18,4 C 0,0 km/h
05.09.2012 22:00 18,6 C 75 % 1019,2 hPa 0,0 l/m 0,0 km/h N-NW 14,1 C 18,6 C 0,0 km/h
05.09.2012 23:00 17,5 C 78 % 1019,6 hPa 0,0 l/m 0,0 km/h N-NW 13,6 C 17,5 C 0,0 km/h
06.09.2012 00:00 15,9 C 81 % 1019,8 hPa 0,0 l/m 0,0 km/h N-NW 12,6 C 15,9 C 0,0 km/h
06.09.2012 01:00 13,9 C 82 % 1020,2 hPa 0,0 l/m 0,0 km/h N-NW 10,9 C 13,9 C 0,0 km/h
06.09.2012 02:00 12,6 C 83 % 1020,4 hPa 0,0 l/m 0,0 km/h N-NW 9,8 C 12,6 C 0,0 km/h
06.09.2012 03:00 12,5 C 82 % 1020,7 hPa 0,0 l/m 0,0 km/h O-SO 9,5 C 12,5 C 0,0 km/h
06.09.2012 04:00 12,1 C 81 % 1020,7 hPa 0,0 l/m 0,0 km/h O-SO 8,9 C 12,1 C 0,0 km/h
06.09.2012 05:00 13,9 C 79 % 1020,9 hPa 0,0 l/m 0,0 km/h W 10,3 C 13,9 C 0,0 km/h
06.09.2012 06:00 13,6 C 79 % 1021,3 hPa 0,0 l/m 0,0 km/h W-SW 10,0 C 13,6 C 0,0 km/h
06.09.2012 07:00 13,6 C 82 % 1022,1 hPa 0,0 l/m 0,0 km/h W-SW 10,6 C 13,6 C 0,0 km/h
06.09.2012 08:00 14,1 C 83 % 1022,3 hPa 0,0 l/m 0,0 km/h W-SW 11,3 C 14,1 C 0,0 km/h
06.09.2012 09:00 15,8 C 80 % 1022,7 hPa 0,0 l/m 0,0 km/h W-SW 12,4 C 15,8 C 0,0 km/h
06.09.2012 10:00 19,4 C 72 % 1022,7 hPa 0,0 l/m 0,0 km/h W 14,2 C 19,4 C 0,0 km/h
06.09.2012 11:00 24,8 C 57 % 1023,1 hPa 0,0 l/m 0,0 km/h NW 15,7 C 24,8 C 0,0 km/h
06.09.2012 12:00 26,6 C 49 % 1022,8 hPa 0,0 l/m 0,0 km/h N-NO 15,0 C 26,6 C 0,0 km/h
06.09.2012 13:00 26,9 C 48 % 1022,5 hPa 0,0 l/m 0,0 km/h N-NO 14,9 C 26,9 C 0,0 km/h
06.09.2012 14:00 25,5 C 50 % 1022,1 hPa 0,0 l/m 0,0 km/h N-NO 14,3 C 25,5 C 0,0 km/h
06.09.2012 15:00 28,0 C 41 % 1022,0 hPa 0,0 l/m 0,0 km/h N 13,5 C 28,0 C 0,0 km/h
06.09.2012 16:00 30,2 C 38 % 1021,5 hPa 0,0 l/m 0,0 km/h N-NW 14,3 C 30,2 C 0,0 km/h
06.09.2012 17:00 28,8 C 39 % 1021,5 hPa 0,0 l/m 0,0 km/h NW 13,4 C 28,8 C 0,0 km/h
06.09.2012 18:00 28,2 C 40 % 1021,5 hPa 0,0 l/m 0,0 km/h N-NO 13,3 C 28,2 C 0,0 km/h
06.09.2012 19:00 24,1 C 47 % 1021,7 hPa 0,0 l/m 0,0 km/h N-NO 12,1 C 24,1 C 0,0 km/h
06.09.2012 20:00 15,7 C 68 % 1022,1 hPa 0,0 l/m 0,0 km/h N-NO 9,8 C 15,7 C 0,0 km/h
06.09.2012 21:00 13,8 C 78 % 1022,9 hPa 0,0 l/m 0,0 km/h N-NO 10,0 C 13,8 C 0,0 km/h
06.09.2012 22:00 12,8 C 82 % 1022,9 hPa 0,0 l/m 0,0 km/h O-SO 9,8 C 12,8 C 0,0 km/h
06.09.2012 23:00 11,3 C 83 % 1023,0 hPa 0,0 l/m 0,0 km/h O 8,5 C 11,3 C 0,0 km/h
07.09.2012 00:00 10,9 C 83 % 1023,0 hPa 0,0 l/m 0,0 km/h O 8,1 C 10,9 C 0,0 km/h
07.09.2012 01:00 9,8 C 83 % 1022,9 hPa 0,0 l/m 0,0 km/h O-SO 7,1 C 9,8 C 0,0 km/h
07.09.2012 02:00 9,4 C 83 % 1023,1 hPa 0,0 l/m 0,0 km/h O 6,7 C 9,4 C 0,0 km/h
07.09.2012 03:00 9,3 C 81 % 1023,1 hPa 0,0 l/m 0,0 km/h NO 6,2 C 9,3 C 0,0 km/h
07.09.2012 04:00 9,1 C 81 % 1022,9 hPa 0,0 l/m 0,0 km/h O-NO 6,0 C 9,1 C 0,0 km/h
07.09.2012 05:00 8,4 C 81 % 1023,0 hPa 0,0 l/m 0,0 km/h NO 5,3 C 8,4 C 0,0 km/h
07.09.2012 06:00 8,1 C 80 % 1023,2 hPa 0,0 l/m 0,0 km/h NO 4,9 C 8,1 C 0,0 km/h
07.09.2012 07:00 7,6 C 80 % 1023,5 hPa 0,0 l/m 0,0 km/h NO 4,4 C 7,6 C 0,0 km/h
07.09.2012 08:00 9,6 C 77 % 1023,5 hPa 0,0 l/m 0,0 km/h O 5,8 C 9,6 C 0,0 km/h
07.09.2012 09:00 16,4 C 78 % 1023,7 hPa 0,0 l/m 0,0 km/h S-SW 12,6 C 16,4 C 0,0 km/h
07.09.2012 10:00 21,1 C 63 % 1023,5 hPa 0,0 l/m 0,0 km/h SW 13,8 C 21,1 C 0,0 km/h
07.09.2012 11:00 23,9 C 54 % 1023,7 hPa 0,0 l/m 0,0 km/h W-NW 14,0 C 23,9 C 0,0 km/h
07.09.2012 12:00 25,9 C 50 % 1023,5 hPa 0,0 l/m 0,0 km/h W 14,7 C 25,9 C 0,0 km/h
07.09.2012 13:00 26,5 C 47 % 1022,9 hPa 0,0 l/m 0,0 km/h W-NW 14,3 C 26,5 C 0,0 km/h
07.09.2012 14:00 26,1 C 44 % 1022,7 hPa 0,0 l/m 0,0 km/h SW 12,9 C 26,1 C 0,0 km/h
07.09.2012 15:00 29,7 C 41 % 1022,2 hPa 0,0 l/m 0,0 km/h W 15,0 C 29,7 C 0,0 km/h
07.09.2012 16:00 32,2 C 34 % 1021,8 hPa 0,0 l/m 0,0 km/h W 14,3 C 32,2 C 0,0 km/h
07.09.2012 17:00 33,2 C 32 % 1021,4 hPa 0,0 l/m 0,0 km/h W 14,2 C 33,2 C 0,0 km/h
07.09.2012 18:00 32,8 C 30 % 1021,0 hPa 0,0 l/m 0,0 km/h W-NW 12,9 C 32,8 C 0,0 km/h
07.09.2012 19:00 29,6 C 35 % 1021,0 hPa 0,0 l/m 0,0 km/h O-SO 12,5 C 29,6 C 0,0 km/h
07.09.2012 20:00 15,4 C 63 % 1021,2 hPa 0,0 l/m 0,0 km/h O 8,4 C 15,4 C 0,0 km/h
07.09.2012 21:00 12,6 C 74 % 1021,7 hPa 0,0 l/m 0,0 km/h NO 8,1 C 12,6 C 0,0 km/h
07.09.2012 22:00 12,2 C 79 % 1021,8 hPa 0,0 l/m 0,0 km/h NO 8,7 C 12,2 C 0,0 km/h
07.09.2012 23:00 11,4 C 80 % 1021,7 hPa 0,0 l/m 0,0 km/h NO 8,1 C 11,4 C 0,0 km/h
08.09.2012 00:00 10,6 C 81 % 1021,5 hPa 0,0 l/m 0,0 km/h NO 7,5 C 10,6 C 0,0 km/h
08.09.2012 01:00 10,4 C 81 % 1021,5 hPa 0,0 l/m 0,0 km/h O 7,3 C 10,4 C 0,0 km/h
08.09.2012 02:00 9,8 C 82 % 1021,3 hPa 0,0 l/m 0,0 km/h O-NO 6,9 C 9,8 C 0,0 km/h
08.09.2012 03:00 8,8 C 82 % 1021,1 hPa 0,0 l/m 0,0 km/h O-SO 5,9 C 8,8 C 0,0 km/h
08.09.2012 04:00 8,4 C 83 % 1020,9 hPa 0,0 l/m 0,0 km/h NO 5,7 C 8,4 C 0,0 km/h
08.09.2012 05:00 7,8 C 83 % 1020,9 hPa 0,0 l/m 0,0 km/h O-SO 5,1 C 7,8 C 0,0 km/h
08.09.2012 06:00 7,2 C 83 % 1020,6 hPa 0,0 l/m 0,0 km/h O-SO 4,5 C 7,2 C 0,0 km/h
08.09.2012 07:00 7,5 C 83 % 1020,6 hPa 0,0 l/m 0,0 km/h O-NO 4,8 C 7,5 C 0,0 km/h
08.09.2012 08:00 9,5 C 81 % 1020,6 hPa 0,0 l/m 0,0 km/h O 6,4 C 9,5 C 0,0 km/h
08.09.2012 09:00 20,1 C 72 % 1020,9 hPa 0,0 l/m 0,0 km/h W-SW 14,9 C 20,1 C 0,0 km/h
08.09.2012 10:00 23,1 C 54 % 1020,6 hPa 0,0 l/m 0,0 km/h W 13,3 C 23,1 C 0,0 km/h
08.09.2012 11:00 26,3 C 47 % 1020,5 hPa 0,0 l/m 0,0 km/h W 14,1 C 26,3 C 0,0 km/h
08.09.2012 12:00 27,9 C 44 % 1019,7 hPa 0,0 l/m 0,0 km/h W 14,5 C 27,9 C 0,0 km/h
08.09.2012 13:00 28,6 C 44 % 1018,8 hPa 0,0 l/m 0,0 km/h W 15,1 C 28,6 C 0,0 km/h
08.09.2012 14:00 28,4 C 45 % 1018,2 hPa 0,0 l/m 0,0 km/h W-NW 15,3 C 28,4 C 0,0 km/h
08.09.2012 15:00 31,1 C 42 % 1017,6 hPa 0,0 l/m 0,0 km/h W 16,6 C 31,1 C 0,0 km/h
08.09.2012 16:00 32,8 C 37 % 1016,9 hPa 0,0 l/m 0,0 km/h W 16,2 C 32,8 C 0,0 km/h
08.09.2012 17:00 34,9 C 34 % 1016,5 hPa 0,0 l/m 0,0 km/h W-NW 16,7 C 34,9 C 0,0 km/h
08.09.2012 18:00 33,3 C 36 % 1016,2 hPa 0,0 l/m 0,0 km/h W 16,2 C 33,3 C 0,0 km/h
08.09.2012 19:00 28,9 C 46 % 1016,1 hPa 0,0 l/m 0,0 km/h SO 16,1 C 28,9 C 0,0 km/h
08.09.2012 20:00 19,1 C 69 % 1016,4 hPa 0,0 l/m 0,0 km/h O-SO 13,3 C 19,1 C 0,0 km/h
08.09.2012 21:00 16,9 C 78 % 1016,9 hPa 0,0 l/m 0,0 km/h SO 13,0 C 16,9 C 0,0 km/h
08.09.2012 22:00 15,6 C 81 % 1017,0 hPa 0,0 l/m 0,0 km/h O-SO 12,3 C 15,6 C 0,0 km/h
08.09.2012 23:00 15,2 C 82 % 1016,9 hPa 0,0 l/m 0,0 km/h SO 12,1 C 15,2 C 0,0 km/h
09.09.2012 00:00 14,3 C 83 % 1016,5 hPa 0,0 l/m 0,0 km/h SO 11,5 C 14,3 C 0,0 km/h
09.09.2012 01:00 14,1 C 82 % 1016,3 hPa 0,0 l/m 0,0 km/h SO 11,1 C 14,1 C 0,0 km/h
09.09.2012 02:00 12,2 C 83 % 1016,3 hPa 0,0 l/m 0,0 km/h O-NO 9,4 C 12,2 C 0,0 km/h
09.09.2012 03:00 10,6 C 83 % 1016,0 hPa 0,0 l/m 0,0 km/h O 7,8 C 10,6 C 0,0 km/h
09.09.2012 04:00 10,2 C 82 % 1015,9 hPa 0,0 l/m 0,0 km/h SO 7,3 C 10,2 C 0,0 km/h
09.09.2012 05:00 10,1 C 81 % 1015,7 hPa 0,0 l/m 0,0 km/h O-SO 7,0 C 10,1 C 0,0 km/h
09.09.2012 06:00 10,4 C 80 % 1015,4 hPa 0,0 l/m 0,0 km/h O-SO 7,1 C 10,4 C 0,0 km/h
09.09.2012 07:00 10,4 C 79 % 1015,4 hPa 0,0 l/m 0,0 km/h NO 6,9 C 10,4 C 0,0 km/h
09.09.2012 08:00 11,6 C 79 % 1015,4 hPa 0,0 l/m 0,0 km/h O-SO 8,1 C 11,6 C 0,0 km/h
09.09.2012 09:00 18,9 C 79 % 1015,5 hPa 0,0 l/m 0,0 km/h S-SO 15,2 C 18,9 C 0,0 km/h
09.09.2012 10:00 24,7 C 55 % 1015,6 hPa 0,0 l/m 0,0 km/h N-NO 15,0 C 24,7 C 0,0 km/h
09.09.2012 11:00 28,4 C 46 % 1015,2 hPa 0,0 l/m 0,0 km/h W 15,6 C 28,4 C 0,0 km/h
09.09.2012 12:00 30,1 C 39 % 1014,8 hPa 0,0 l/m 0,0 km/h W 14,6 C 30,1 C 0,0 km/h
09.09.2012 13:00 31,6 C 40 % 1014,2 hPa 0,0 l/m 0,0 km/h W 16,3 C 31,6 C 0,0 km/h
09.09.2012 14:00 31,6 C 38 % 1013,8 hPa 0,0 l/m 0,0 km/h W-NW 15,5 C 31,6 C 0,0 km/h
09.09.2012 15:00 33,4 C 38 % 1013,3 hPa 0,0 l/m 0,0 km/h W-NW 17,1 C 33,4 C 0,0 km/h
09.09.2012 16:00 35,0 C 35 % 1013,1 hPa 0,0 l/m 0,0 km/h S-SO 17,2 C 35,0 C 0,0 km/h
09.09.2012 17:00 37,0 C 33 % 1012,4 hPa 0,0 l/m 0,0 km/h W-SW 18,0 C 37,0 C 0,0 km/h
09.09.2012 18:00 33,1 C 36 % 1012,4 hPa 0,0 l/m 0,0 km/h S-SO 16,0 C 33,1 C 0,0 km/h
09.09.2012 19:00 28,1 C 49 % 1012,5 hPa 0,0 l/m 0,0 km/h O-NO 16,4 C 28,1 C 0,0 km/h
09.09.2012 20:00 20,6 C 67 % 1012,7 hPa 0,0 l/m 0,0 km/h SO 14,3 C 20,6 C 0,0 km/h
09.09.2012 21:00 18,5 C 74 % 1013,2 hPa 0,0 l/m 0,0 km/h SO 13,8 C 18,5 C 0,0 km/h
09.09.2012 22:00 16,7 C 78 % 1013,6 hPa 0,0 l/m 0,0 km/h SO 12,8 C 16,7 C 0,0 km/h
09.09.2012 23:00 16,6 C 80 % 1013,7 hPa 0,0 l/m 0,0 km/h SO 13,1 C 16,6 C 0,0 km/h
Min-Datum _ 08.09.12 07.09.12 09.09.12 - 03.09.12 - 07.09.12 08.09.12 03.09.12
_ Min-Zeit 06:19 18:19 17:19 - 00:19 - 07:19 06:19 00:19
Minimum _ 7,2 C 30 % 1012,4 hPa - 0,0 km/h - 4,4 C 7,2 C 0,0 km/h
Max-Datum _ 09.09.12 04.09.12 07.09.12 03.09.12 03.09.12 - 05.09.12 09.09.12 03.09.12
_ Max-Zeit 17:19 02:19 09:19 00:19 00:19 - 13:19 17:19 00:19
Maximum _ 37,0 C 83 % 1023,7 hPa 0,0 l/m 0,0 km/h
SO
- 18,2 C 37,0 C 0,0 km/h
SO
Durchschnitt _ 19,4 C 67 % 1018,7 hPa #0,0 l/m 0,0 km/h N-NO 12,5 C 19,4 C 0,0 km/h
www.sexauwetter.de